Time;durP1;ratioP1;P1;durP2;ratioP2;P2;SDS_P1;SDS_P2;PMS_P1;PMS_P2;Temp;Humidity;BMP_temperature;BMP_pressure;BME280_temperature;BME280_humidity;BME280_pressure;Samples;Min_cycle;Max_cycle;Signal;HPM_P1;HPM_P2
2023/03/12 00:01:44;;;;;;;13.68;4.75;;;;;;;;;;5059945;28;20031;-70
2023/03/12 00:04:10;;;;;;;9.48;3.67;;;;;;;;;;5057682;28;20362;-70
2023/03/12 00:06:35;;;;;;;4.53;2.47;;;;;;;;;;5054915;28;20033;-70
2023/03/12 00:09:00;;;;;;;15.85;3.70;;;;;;;;;;5060807;28;20048;-70
2023/03/12 00:11:26;;;;;;;14.57;3.45;;;;;;;;;;5058671;28;20661;-70
2023/03/12 00:13:53;;;;;;;7.85;3.40;;;;;;;;;;5059788;28;20024;-70
2023/03/12 00:16:18;;;;;;;10.45;3.72;;;;;;;;;;5062105;28;20016;-70
2023/03/12 00:18:46;;;;;;;12.85;3.70;;;;;;;;;;5061674;28;20020;-70
2023/03/12 00:21:11;;;;;;;10.52;3.85;;;;;;;;;;5061253;28;20027;-70
2023/03/12 00:23:36;;;;;;;7.05;2.55;;;;;;;;;;5069401;28;20032;-70
2023/03/12 00:26:06;;;;;;;5.68;2.45;;;;;;;;;;5069639;28;20370;-70
2023/03/12 00:28:31;;;;;;;4.88;3.20;;;;;;;;;;5060339;28;20409;-70
2023/03/12 00:30:57;;;;;;;6.85;3.22;;;;;;;;;;5057253;28;20029;-70
2023/03/12 00:33:22;;;;;;;10.65;3.28;;;;;;;;;;5057519;28;20063;-70
2023/03/12 00:35:48;;;;;;;8.10;2.53;;;;;;;;;;5063415;28;20111;-70
2023/03/12 00:38:13;;;;;;;19.73;3.95;;;;;;;;;;5063656;28;20023;-70
2023/03/12 00:40:38;;;;;;;8.70;3.50;;;;;;;;;;5061574;28;20035;-70
2023/03/12 00:43:03;;;;;;;11.10;3.60;;;;;;;;;;5066357;28;20094;-70
2023/03/12 00:45:29;;;;;;;13.13;3.28;;;;;;;;;;5063007;28;20025;-70
2023/03/12 00:47:54;;;;;;;9.10;3.93;;;;;;;;;;5061776;28;20036;-70
2023/03/12 00:50:19;;;;;;;11.38;4.10;;;;;;;;;;5062373;28;20287;-70
2023/03/12 00:52:44;;;;;;;10.98;3.72;;;;;;;;;;5063351;28;20027;-70
2023/03/12 00:55:10;;;;;;;9.00;3.63;;;;;;;;;;5055406;28;20101;-70
2023/03/12 00:57:35;;;;;;;8.03;3.23;;;;;;;;;;5058619;28;20026;-70
2023/03/12 01:00:00;;;;;;;7.90;4.30;;;;;;;;;;5061261;28;20287;-71
2023/03/12 01:02:25;;;;;;;11.10;2.47;;;;;;;;;;5061154;28;20294;-70
2023/03/12 01:04:50;;;;;;;8.50;4.05;;;;;;;;;;5063645;28;20147;-70
2023/03/12 01:07:16;;;;;;;10.25;2.80;;;;;;;;;;5068427;28;20092;-70
2023/03/12 01:09:41;;;;;;;7.25;2.28;;;;;;;;;;5061656;28;20020;-70
2023/03/12 01:12:06;;;;;;;6.78;2.90;;;;;;;;;;5060352;28;20060;-70
2023/03/12 01:14:31;;;;;;;2.80;1.30;;;;;;;;;;5062683;28;20079;-70
2023/03/12 01:16:56;;;;;;;9.40;1.80;;;;;;;;;;5063424;28;20017;-70
2023/03/12 01:19:22;;;;;;;10.40;3.35;;;;;;;;;;5066561;28;20332;-70
2023/03/12 01:21:47;;;;;;;4.88;1.33;;;;;;;;;;5057452;28;20025;-70
2023/03/12 01:24:12;;;;;;;7.80;2.78;;;;;;;;;;5060736;28;20055;-70
2023/03/12 01:26:37;;;;;;;8.18;2.80;;;;;;;;;;5063297;28;20063;-70
2023/03/12 01:29:02;;;;;;;2.80;1.02;;;;;;;;;;5061619;28;20105;-70
2023/03/12 01:31:28;;;;;;;8.73;2.50;;;;;;;;;;5059921;28;20060;-70
2023/03/12 01:33:53;;;;;;;11.00;3.47;;;;;;;;;;5064658;28;20036;-70
2023/03/12 01:36:20;;;;;;;2.25;1.20;;;;;;;;;;5059968;28;20017;-70
2023/03/12 01:38:45;;;;;;;7.20;2.00;;;;;;;;;;5058265;28;20020;-70
2023/03/12 01:41:11;;;;;;;5.45;2.15;;;;;;;;;;5057413;28;20037;-70
2023/03/12 01:43:37;;;;;;;10.15;2.63;;;;;;;;;;5066483;28;20556;-70
2023/03/12 01:46:03;;;;;;;11.60;4.32;;;;;;;;;;5060230;28;20028;-70
2023/03/12 01:48:30;;;;;;;4.82;1.80;;;;;;;;;;5064333;28;20021;-70
2023/03/12 01:50:55;;;;;;;9.43;2.28;;;;;;;;;;5059165;28;20013;-70
2023/03/12 01:53:21;;;;;;;12.82;2.75;;;;;;;;;;5062379;28;20023;-70
2023/03/12 01:55:47;;;;;;;11.45;2.60;;;;;;;;;;5062587;28;20020;-70
2023/03/12 01:58:12;;;;;;;5.72;2.00;;;;;;;;;;5062096;28;20054;-70
2023/03/12 02:00:37;;;;;;;9.02;2.60;;;;;;;;;;5059012;28;20132;-70
2023/03/12 02:03:04;;;;;;;5.53;2.10;;;;;;;;;;5055943;28;20111;-70
2023/03/12 02:05:30;;;;;;;14.77;2.53;;;;;;;;;;5069161;28;20035;-70
2023/03/12 02:07:56;;;;;;;5.63;2.30;;;;;;;;;;5067441;28;20024;-70
2023/03/12 02:10:21;;;;;;;1.65;0.95;;;;;;;;;;5061688;28;20027;-70
2023/03/12 02:12:46;;;;;;;4.32;1.35;;;;;;;;;;5059335;28;20099;-70
2023/03/12 02:15:11;;;;;;;4.93;2.40;;;;;;;;;;5062217;28;20469;-70
2023/03/12 02:17:39;;;;;;;7.72;2.13;;;;;;;;;;5065040;28;20317;-70
2023/03/12 02:20:17;;;;;;;5.63;2.28;;;;;;;;;;5063117;28;20026;-70
2023/03/12 02:22:46;;;;;;;8.38;2.83;;;;;;;;;;5061861;28;20042;-70
2023/03/12 02:25:29;;;;;;;8.45;2.58;;;;;;;;;;5060506;28;20444;-70
2023/03/12 02:27:56;;;;;;;8.07;2.60;;;;;;;;;;5061958;28;20350;-70
2023/03/12 02:30:22;;;;;;;12.27;2.85;;;;;;;;;;5057869;28;20382;-70
2023/03/12 02:32:47;;;;;;;8.45;2.50;;;;;;;;;;5063887;28;20025;-70
2023/03/12 02:35:13;;;;;;;3.30;0.90;;;;;;;;;;5060084;28;20021;-70
2023/03/12 02:37:49;;;;;;;11.40;2.53;;;;;;;;;;5058191;28;20016;-70
2023/03/12 02:40:17;;;;;;;7.18;2.05;;;;;;;;;;5064036;28;20025;-70
2023/03/12 02:42:44;;;;;;;11.07;3.10;;;;;;;;;;5064023;28;20028;-70
2023/03/12 02:45:09;;;;;;;9.30;2.03;;;;;;;;;;5058564;28;20071;-70
2023/03/12 02:47:34;;;;;;;5.53;1.83;;;;;;;;;;5058817;28;20432;-70
2023/03/12 02:50:00;;;;;;;7.45;2.90;;;;;;;;;;5062348;28;20027;-69
2023/03/12 02:52:25;;;;;;;3.60;2.00;;;;;;;;;;5058935;28;20480;-70
2023/03/12 02:54:50;;;;;;;12.05;3.60;;;;;;;;;;5058984;28;20258;-69
2023/03/12 02:57:15;;;;;;;6.28;2.10;;;;;;;;;;5060968;28;20422;-70
2023/03/12 02:59:40;;;;;;;5.88;2.17;;;;;;;;;;5060894;28;20016;-70
2023/03/12 03:02:06;;;;;;;5.82;2.30;;;;;;;;;;5058271;28;20017;-70
2023/03/12 03:04:32;;;;;;;7.30;2.28;;;;;;;;;;5068612;28;20020;-70
2023/03/12 03:06:58;;;;;;;9.27;4.35;;;;;;;;;;5057559;28;20401;-70
2023/03/12 03:09:23;;;;;;;6.78;1.90;;;;;;;;;;5066270;28;20020;-70
2023/03/12 03:11:49;;;;;;;13.65;2.47;;;;;;;;;;5056860;28;20033;-70
2023/03/12 03:14:14;;;;;;;5.63;2.10;;;;;;;;;;5060289;28;20088;-70
2023/03/12 03:16:39;;;;;;;7.53;2.83;;;;;;;;;;5062493;28;20021;-70
2023/03/12 03:19:05;;;;;;;11.33;2.17;;;;;;;;;;5058499;28;20052;-70
2023/03/12 03:21:30;;;;;;;8.43;2.33;;;;;;;;;;5054611;28;20772;-70
2023/03/12 03:23:55;;;;;;;11.70;1.92;;;;;;;;;;5062596;28;20025;-70
2023/03/12 03:26:22;;;;;;;5.75;1.75;;;;;;;;;;5057657;28;20024;-69
2023/03/12 03:28:48;;;;;;;5.68;1.13;;;;;;;;;;5066024;28;20044;-70
2023/03/12 03:31:13;;;;;;;6.18;2.22;;;;;;;;;;5056729;28;20024;-70
2023/03/12 03:33:38;;;;;;;4.40;1.30;;;;;;;;;;5058817;28;20060;-70
2023/03/12 03:36:04;;;;;;;2.72;1.48;;;;;;;;;;5058028;28;20055;-70
2023/03/12 03:38:30;;;;;;;3.97;2.00;;;;;;;;;;5055102;28;20041;-69
2023/03/12 03:40:55;;;;;;;3.67;1.27;;;;;;;;;;5062427;28;20051;-70
2023/03/12 03:43:21;;;;;;;16.02;2.72;;;;;;;;;;5065816;28;20016;-70
2023/03/12 03:45:46;;;;;;;6.07;1.75;;;;;;;;;;5060300;28;20021;-70
2023/03/12 03:48:11;;;;;;;4.93;2.45;;;;;;;;;;5051647;28;20082;-69
2023/03/12 03:50:37;;;;;;;5.57;1.70;;;;;;;;;;5060353;28;20037;-70
2023/03/12 03:53:03;;;;;;;6.78;1.95;;;;;;;;;;5065214;28;20078;-70
2023/03/12 03:55:28;;;;;;;4.30;1.52;;;;;;;;;;5064519;28;20029;-70
2023/03/12 03:57:53;;;;;;;2.47;1.45;;;;;;;;;;5057966;28;20040;-70
2023/03/12 04:00:19;;;;;;;2.10;1.27;;;;;;;;;;5058882;28;20102;-70
2023/03/12 04:02:44;;;;;;;2.33;1.05;;;;;;;;;;5059475;28;20028;-70
2023/03/12 04:05:10;;;;;;;5.43;3.00;;;;;;;;;;5061116;28;20073;-70
2023/03/12 04:07:36;;;;;;;4.53;1.63;;;;;;;;;;5058413;28;20111;-70
2023/03/12 04:10:01;;;;;;;14.07;2.72;;;;;;;;;;5063196;28;20028;-70
2023/03/12 04:12:26;;;;;;;4.03;1.65;;;;;;;;;;5062256;28;20025;-69
2023/03/12 04:14:52;;;;;;;2.67;1.60;;;;;;;;;;5057426;28;20034;-70
2023/03/12 04:17:17;;;;;;;2.65;1.30;;;;;;;;;;5061443;28;20024;-69
2023/03/12 04:19:43;;;;;;;4.05;1.90;;;;;;;;;;5065047;28;20024;-70
2023/03/12 04:22:08;;;;;;;6.75;1.75;;;;;;;;;;5068567;28;20381;-70
2023/03/12 04:24:33;;;;;;;5.18;1.35;;;;;;;;;;5061011;28;20027;-69
2023/03/12 04:26:58;;;;;;;4.45;1.67;;;;;;;;;;5060909;28;20025;-70
2023/03/12 04:29:24;;;;;;;3.22;1.40;;;;;;;;;;5062783;28;20436;-70
2023/03/12 04:31:49;;;;;;;7.22;1.38;;;;;;;;;;5064626;28;20107;-70
2023/03/12 04:34:14;;;;;;;4.25;1.40;;;;;;;;;;5063791;28;20559;-70
2023/03/12 04:36:39;;;;;;;5.45;2.15;;;;;;;;;;5059840;28;20029;-70
2023/03/12 04:39:08;;;;;;;3.03;1.27;;;;;;;;;;5060065;28;20037;-70
2023/03/12 04:41:34;;;;;;;9.63;1.73;;;;;;;;;;5064021;28;20021;-70
2023/03/12 04:43:59;;;;;;;8.80;1.90;;;;;;;;;;5061334;28;20566;-70
2023/03/12 04:46:24;;;;;;;4.93;1.55;;;;;;;;;;5068769;28;20056;-70
2023/03/12 04:48:50;;;;;;;9.18;1.52;;;;;;;;;;5058624;28;20639;-70
2023/03/12 04:51:15;;;;;;;3.78;1.08;;;;;;;;;;5058271;28;20079;-70
2023/03/12 04:53:40;;;;;;;2.58;1.25;;;;;;;;;;5059123;28;20024;-70
2023/03/12 04:56:06;;;;;;;2.70;1.05;;;;;;;;;;5060862;28;20013;-70
2023/03/12 04:58:31;;;;;;;5.80;1.60;;;;;;;;;;5061875;28;20082;-70
2023/03/12 05:00:56;;;;;;;9.23;2.10;;;;;;;;;;5063435;28;20024;-70
2023/03/12 05:03:21;;;;;;;4.63;1.67;;;;;;;;;;5059211;28;20382;-70
2023/03/12 05:05:47;;;;;;;4.85;2.05;;;;;;;;;;5065585;28;20024;-70
2023/03/12 05:08:12;;;;;;;6.07;1.38;;;;;;;;;;5062403;28;20021;-70
2023/03/12 05:10:37;;;;;;;2.78;1.13;;;;;;;;;;5066132;28;20036;-70
2023/03/12 05:13:02;;;;;;;4.72;1.80;;;;;;;;;;5064677;28;20013;-70
2023/03/12 05:15:28;;;;;;;6.60;1.88;;;;;;;;;;5063134;28;20086;-70
2023/03/12 05:17:53;;;;;;;11.60;2.60;;;;;;;;;;5059231;28;20435;-70
2023/03/12 05:20:18;;;;;;;2.65;0.85;;;;;;;;;;5065071;28;20515;-70
2023/03/12 05:22:43;;;;;;;2.83;1.48;;;;;;;;;;5061873;28;20017;-70
2023/03/12 05:25:09;;;;;;;3.47;1.27;;;;;;;;;;5065297;28;20060;-70
2023/03/12 05:27:34;;;;;;;3.63;1.67;;;;;;;;;;5059904;28;20032;-70
2023/03/12 05:29:59;;;;;;;7.10;1.83;;;;;;;;;;5064329;28;20028;-70
2023/03/12 05:32:25;;;;;;;10.23;1.95;;;;;;;;;;5062997;28;20066;-69
2023/03/12 05:34:50;;;;;;;10.07;2.10;;;;;;;;;;5062789;28;20488;-69
2023/03/12 05:37:15;;;;;;;4.63;1.42;;;;;;;;;;5063900;28;20020;-69
2023/03/12 05:39:45;;;;;;;1.98;1.40;;;;;;;;;;5067940;28;20028;-69
2023/03/12 05:42:11;;;;;;;4.78;2.42;;;;;;;;;;5060161;28;20075;-70
2023/03/12 05:44:36;;;;;;;6.22;1.77;;;;;;;;;;5058362;28;20028;-70
2023/03/12 05:47:01;;;;;;;8.97;2.40;;;;;;;;;;5056890;28;20017;-69
2023/03/12 05:49:26;;;;;;;5.43;2.33;;;;;;;;;;5063682;28;20313;-69
2023/03/12 05:51:51;;;;;;;4.38;1.50;;;;;;;;;;5059091;28;20035;-69
2023/03/12 05:54:17;;;;;;;2.17;1.55;;;;;;;;;;5066615;28;20031;-69
2023/03/12 05:56:42;;;;;;;5.07;2.15;;;;;;;;;;5056204;28;20101;-69
2023/03/12 05:59:09;;;;;;;10.57;1.75;;;;;;;;;;5055789;28;20020;-69
2023/03/12 06:01:34;;;;;;;6.43;1.35;;;;;;;;;;5064899;28;20489;-69
2023/03/12 06:04:00;;;;;;;9.85;1.33;;;;;;;;;;5066901;28;20086;-69
2023/03/12 06:06:25;;;;;;;6.35;2.08;;;;;;;;;;5062933;28;20055;-69
2023/03/12 06:08:50;;;;;;;9.52;1.65;;;;;;;;;;5063885;28;20389;-69
2023/03/12 06:11:16;;;;;;;9.30;2.50;;;;;;;;;;5056929;28;20025;-69
2023/03/12 06:13:41;;;;;;;3.88;1.95;;;;;;;;;;5056483;28;20020;-69
2023/03/12 06:16:08;;;;;;;4.30;1.35;;;;;;;;;;5063425;28;20028;-69
2023/03/12 06:18:34;;;;;;;5.20;1.80;;;;;;;;;;5063538;28;20024;-69
2023/03/12 06:21:08;;;;;;;6.38;2.42;;;;;;;;;;5061138;28;20027;-70
2023/03/12 06:23:33;;;;;;;5.05;0.82;;;;;;;;;;5063300;28;20029;-70
2023/03/12 06:25:58;;;;;;;10.85;2.53;;;;;;;;;;5059424;28;20381;-70
2023/03/12 06:28:23;;;;;;;12.75;1.77;;;;;;;;;;5066525;28;20030;-69
2023/03/12 06:30:51;;;;;;;6.75;2.55;;;;;;;;;;5061552;28;20051;-70
2023/03/12 06:33:16;;;;;;;2.47;1.33;;;;;;;;;;5063359;28;20048;-70
2023/03/12 06:35:41;;;;;;;3.78;1.77;;;;;;;;;;5062670;28;20052;-70
2023/03/12 06:38:07;;;;;;;7.10;3.33;;;;;;;;;;5058636;28;20016;-70
2023/03/12 06:40:32;;;;;;;2.92;2.35;;;;;;;;;;5057345;28;20126;-70
2023/03/12 06:42:57;;;;;;;4.03;2.07;;;;;;;;;;5054665;28;20551;-70
2023/03/12 06:45:22;;;;;;;4.20;1.70;;;;;;;;;;5061203;28;20278;-69
2023/03/12 06:47:47;;;;;;;3.17;1.95;;;;;;;;;;5062715;28;20758;-69
2023/03/12 06:50:12;;;;;;;6.35;2.85;;;;;;;;;;5065665;28;20063;-71
2023/03/12 06:52:39;;;;;;;4.93;2.25;;;;;;;;;;5057846;28;20052;-71
2023/03/12 06:55:04;;;;;;;3.78;1.88;;;;;;;;;;5058033;28;20008;-72
2023/03/12 06:57:30;;;;;;;8.85;2.05;;;;;;;;;;5048651;28;20020;-72
2023/03/12 06:59:55;;;;;;;7.13;2.17;;;;;;;;;;5053359;28;20020;-72
2023/03/12 07:02:20;;;;;;;2.35;1.40;;;;;;;;;;5051175;28;20069;-72
2023/03/12 07:04:45;;;;;;;4.90;2.78;;;;;;;;;;5054006;28;20029;-72
2023/03/12 07:07:10;;;;;;;10.47;3.70;;;;;;;;;;5051443;28;20104;-71
2023/03/12 07:09:36;;;;;;;11.13;3.05;;;;;;;;;;5051478;28;20775;-71
2023/03/12 07:12:03;;;;;;;11.20;3.05;;;;;;;;;;5063508;28;20038;-72
2023/03/12 07:14:28;;;;;;;3.67;1.73;;;;;;;;;;5060052;28;20052;-72
2023/03/12 07:16:53;;;;;;;4.07;2.10;;;;;;;;;;5061082;28;21943;-72
2023/03/12 07:19:18;;;;;;;6.22;2.10;;;;;;;;;;5059228;28;20324;-72
2023/03/12 07:21:43;;;;;;;2.58;1.70;;;;;;;;;;5058474;28;20016;-72
2023/03/12 07:24:08;;;;;;;7.13;2.00;;;;;;;;;;5060499;28;20021;-72
2023/03/12 07:26:34;;;;;;;8.23;2.17;;;;;;;;;;5067760;28;20065;-72
2023/03/12 07:29:00;;;;;;;7.68;3.13;;;;;;;;;;5056001;28;20025;-72
2023/03/12 07:31:25;;;;;;;7.40;2.10;;;;;;;;;;5055501;28;20033;-72
2023/03/12 07:33:50;;;;;;;3.53;1.42;;;;;;;;;;5068457;28;20388;-72
2023/03/12 07:36:16;;;;;;;5.35;2.42;;;;;;;;;;5064065;28;20053;-71
2023/03/12 07:38:41;;;;;;;8.50;3.53;;;;;;;;;;5064183;28;20020;-71
2023/03/12 07:41:07;;;;;;;6.57;1.50;;;;;;;;;;5063766;28;20020;-71
2023/03/12 07:43:32;;;;;;;8.25;2.75;;;;;;;;;;5064980;28;20035;-71
2023/03/12 07:45:57;;;;;;;4.03;2.90;;;;;;;;;;5069894;28;20036;-71
2023/03/12 07:48:23;;;;;;;6.55;2.22;;;;;;;;;;5059543;28;20489;-71
2023/03/12 07:50:48;;;;;;;7.23;2.10;;;;;;;;;;5059164;28;20021;-72
2023/03/12 07:53:13;;;;;;;6.28;2.92;;;;;;;;;;5063931;28;20311;-72
2023/03/12 07:55:38;;;;;;;4.60;2.00;;;;;;;;;;5066738;28;20074;-72
2023/03/12 07:58:03;;;;;;;6.85;1.42;;;;;;;;;;5068848;28;20274;-71
2023/03/12 08:00:29;;;;;;;7.95;2.10;;;;;;;;;;5067630;28;20052;-71
2023/03/12 08:02:54;;;;;;;9.95;3.45;;;;;;;;;;5056312;28;20029;-71
2023/03/12 08:05:23;;;;;;;5.35;2.72;;;;;;;;;;5064034;28;20083;-72
2023/03/12 08:07:48;;;;;;;11.52;2.28;;;;;;;;;;5071400;28;20044;-72
2023/03/12 08:10:14;;;;;;;11.52;2.65;;;;;;;;;;5060556;28;20110;-71
2023/03/12 08:12:39;;;;;;;3.20;1.30;;;;;;;;;;5061601;28;20389;-71
2023/03/12 08:15:05;;;;;;;3.70;1.75;;;;;;;;;;5058547;28;20032;-73
2023/03/12 08:17:30;;;;;;;4.57;2.28;;;;;;;;;;5062612;28;20418;-72
2023/03/12 08:19:55;;;;;;;8.10;2.75;;;;;;;;;;5058074;28;20108;-72
2023/03/12 08:22:20;;;;;;;7.05;3.03;;;;;;;;;;5062021;28;20036;-72
2023/03/12 08:24:46;;;;;;;4.88;2.60;;;;;;;;;;5060157;28;20486;-72
2023/03/12 08:27:11;;;;;;;5.00;1.95;;;;;;;;;;5077692;28;20047;-72
2023/03/12 08:29:36;;;;;;;8.43;2.50;;;;;;;;;;5065912;28;20488;-72
2023/03/12 08:32:01;;;;;;;11.80;3.78;;;;;;;;;;5067794;28;20021;-72
2023/03/12 08:34:27;;;;;;;18.17;2.40;;;;;;;;;;5062997;28;20755;-72
2023/03/12 08:36:52;;;;;;;14.40;4.60;;;;;;;;;;5072393;28;20092;-72
2023/03/12 08:39:17;;;;;;;5.82;2.80;;;;;;;;;;5063783;28;20401;-72
2023/03/12 08:41:42;;;;;;;7.38;2.50;;;;;;;;;;5063235;28;20503;-72
2023/03/12 08:44:07;;;;;;;4.38;2.10;;;;;;;;;;5066298;28;20921;-73
2023/03/12 08:46:33;;;;;;;6.03;2.33;;;;;;;;;;5068412;28;20087;-73
2023/03/12 08:48:58;;;;;;;7.95;2.80;;;;;;;;;;5064806;28;20279;-72
2023/03/12 08:51:24;;;;;;;8.20;2.80;;;;;;;;;;5060697;28;20027;-73
2023/03/12 08:53:49;;;;;;;10.90;3.17;;;;;;;;;;5065208;28;20013;-72
2023/03/12 08:56:14;;;;;;;7.75;2.15;;;;;;;;;;5062626;28;20074;-72
2023/03/12 08:58:39;;;;;;;7.28;2.65;;;;;;;;;;5057393;28;20036;-72
2023/03/12 09:01:09;;;;;;;6.80;2.75;;;;;;;;;;5062689;28;20021;-72
2023/03/12 09:03:34;;;;;;;4.10;2.20;;;;;;;;;;5063013;28;20501;-72
2023/03/12 09:06:04;;;;;;;3.45;2.38;;;;;;;;;;5062292;28;20019;-72
2023/03/12 09:08:29;;;;;;;8.88;3.88;;;;;;;;;;5069565;28;20025;-72
2023/03/12 09:11:00;;;;;;;14.25;4.13;;;;;;;;;;5060018;28;20032;-72
2023/03/12 09:13:25;;;;;;;3.72;1.77;;;;;;;;;;5058746;28;20031;-72
2023/03/12 09:15:50;;;;;;;6.32;2.25;;;;;;;;;;5064381;28;20012;-70
2023/03/12 09:18:16;;;;;;;2.83;2.10;;;;;;;;;;5062352;28;20056;-70
2023/03/12 09:20:41;;;;;;;9.43;3.45;;;;;;;;;;5061701;28;20271;-71
2023/03/12 09:23:06;;;;;;;5.82;2.45;;;;;;;;;;5056903;28;20024;-71
2023/03/12 09:25:32;;;;;;;3.25;1.85;;;;;;;;;;5056396;28;20027;-71
2023/03/12 09:27:57;;;;;;;5.22;2.72;;;;;;;;;;5068124;28;20027;-72
2023/03/12 09:30:25;;;;;;;8.77;2.55;;;;;;;;;;5062821;28;20020;-72
2023/03/12 09:32:50;;;;;;;12.68;2.90;;;;;;;;;;5060348;28;20028;-70
2023/03/12 09:35:15;;;;;;;5.80;2.88;;;;;;;;;;5061820;28;20389;-70
2023/03/12 09:37:40;;;;;;;9.57;3.42;;;;;;;;;;5059566;28;20113;-70
2023/03/12 09:40:07;;;;;;;7.93;2.50;;;;;;;;;;5064842;28;20028;-71
2023/03/12 09:42:39;;;;;;;9.95;4.47;;;;;;;;;;5058459;28;20286;-72
2023/03/12 09:45:05;;;;;;;5.45;3.20;;;;;;;;;;5062707;28;20095;-72
2023/03/12 09:47:33;;;;;;;5.07;2.53;;;;;;;;;;5059179;28;20453;-72
2023/03/12 09:50:03;;;;;;;8.52;3.53;;;;;;;;;;5062706;28;20035;-72
2023/03/12 09:52:31;;;;;;;14.18;3.03;;;;;;;;;;5063541;28;20098;-72
2023/03/12 09:54:56;;;;;;;9.77;3.25;;;;;;;;;;5062777;28;20017;-72
2023/03/12 09:57:23;;;;;;;6.72;3.10;;;;;;;;;;5061895;28;20027;-72
2023/03/12 09:59:49;;;;;;;7.35;3.47;;;;;;;;;;5057718;28;20488;-72
2023/03/12 10:02:26;;;;;;;9.02;3.40;;;;;;;;;;5060684;28;20096;-72
2023/03/12 10:04:56;;;;;;;4.15;3.08;;;;;;;;;;5063800;28;20025;-72
2023/03/12 10:07:26;;;;;;;6.80;3.47;;;;;;;;;;5062374;28;20030;-72
2023/03/12 10:10:15;;;;;;;9.90;4.10;;;;;;;;;;5058754;28;20168;-72
2023/03/12 10:12:43;;;;;;;9.05;3.88;;;;;;;;;;5062976;28;20032;-72
2023/03/12 10:15:27;;;;;;;8.90;4.78;;;;;;;;;;5056607;28;20012;-72
2023/03/12 10:17:52;;;;;;;8.65;3.60;;;;;;;;;;5066172;28;20160;-72
2023/03/12 10:20:26;;;;;;;8.50;3.65;;;;;;;;;;5057386;28;20120;-71
2023/03/12 10:22:57;;;;;;;11.00;3.95;;;;;;;;;;5061157;28;20024;-71
2023/03/12 10:25:41;;;;;;;7.35;3.92;;;;;;;;;;5051752;28;20009;-71
2023/03/12 10:28:12;;;;;;;11.65;5.18;;;;;;;;;;5061219;28;20032;-71
2023/03/12 10:30:39;;;;;;;8.90;4.30;;;;;;;;;;5061552;28;20017;-71
2023/03/12 10:33:08;;;;;;;9.90;5.82;;;;;;;;;;5057849;28;20680;-71
2023/03/12 10:35:35;;;;;;;8.93;4.00;;;;;;;;;;5056953;28;20028;-71
2023/03/12 10:38:01;;;;;;;10.45;5.63;;;;;;;;;;5062221;28;20015;-71
2023/03/12 10:40:28;;;;;;;10.15;5.22;;;;;;;;;;5058366;28;20033;-71
2023/03/12 10:42:53;;;;;;;17.63;8.48;;;;;;;;;;5057796;28;20031;-71
2023/03/12 10:45:37;;;;;;;5.90;2.92;;;;;;;;;;5056830;28;20024;-71
2023/03/12 10:48:05;;;;;;;6.70;2.38;;;;;;;;;;5056310;28;20029;-71
2023/03/12 10:50:32;;;;;;;9.63;2.78;;;;;;;;;;5059710;28;20045;-71
2023/03/12 10:53:31;;;;;;;11.25;6.13;;;;;;;;;;5056965;28;20079;-71
2023/03/12 10:56:01;;;;;;;17.45;6.82;;;;;;;;;;5031379;28;20037;-71
2023/03/12 10:58:30;;;;;;;10.32;5.53;;;;;;;;;;5055177;28;20036;-71
2023/03/12 11:00:57;;;;;;;17.67;6.60;;;;;;;;;;5058707;28;20490;-71
2023/03/12 11:03:22;;;;;;;4.85;3.05;;;;;;;;;;5054167;28;20383;-71
2023/03/12 11:05:48;;;;;;;11.00;7.00;;;;;;;;;;5059784;28;20119;-71
2023/03/12 11:08:19;;;;;;;10.65;3.83;;;;;;;;;;5056470;28;20298;-71
2023/03/12 11:10:44;;;;;;;;;;;;;;;;;;5053596;28;20021;-71
2023/03/12 11:13:23;;;;;;;17.17;7.22;;;;;;;;;;5062214;28;19987;-71
2023/03/12 11:15:49;;;;;;;10.48;4.65;;;;;;;;;;5056585;28;20612;-71
2023/03/12 11:18:18;;;;;;;12.20;7.07;;;;;;;;;;5059904;28;20021;-71
2023/03/12 11:20:43;;;;;;;17.48;8.20;;;;;;;;;;5062377;28;20017;-71
2023/03/12 11:23:13;;;;;;;7.38;4.30;;;;;;;;;;5060199;28;20070;-71
2023/03/12 11:25:38;;;;;;;21.83;8.63;;;;;;;;;;5064374;28;20411;-71
2023/03/12 11:28:04;;;;;;;19.80;8.53;;;;;;;;;;5058056;28;20071;-71
2023/03/12 11:30:34;;;;;;;19.80;9.52;;;;;;;;;;5061444;28;20282;-69
2023/03/12 11:33:00;;;;;;;23.77;8.95;;;;;;;;;;5057442;28;20021;-70
2023/03/12 11:35:46;;;;;;;6.97;4.38;;;;;;;;;;5066709;28;20028;-70
2023/03/12 11:38:18;;;;;;;19.08;8.52;;;;;;;;;;5061490;28;20055;-70
2023/03/12 11:40:52;;;;;;;25.48;9.38;;;;;;;;;;5060686;28;20035;-71
2023/03/12 11:43:20;;;;;;;29.48;9.93;;;;;;;;;;5061243;28;20017;-68
2023/03/12 11:45:46;;;;;;;21.15;8.57;;;;;;;;;;5061474;28;20027;-71
2023/03/12 11:48:24;;;;;;;19.00;9.68;;;;;;;;;;5060645;28;20024;-70
2023/03/12 11:50:49;;;;;;;19.77;7.75;;;;;;;;;;5059180;28;20633;-71
2023/03/12 11:53:36;;;;;;;21.17;7.03;;;;;;;;;;5063107;28;20070;-70
2023/03/12 11:56:17;;;;;;;25.63;12.15;;;;;;;;;;5060290;28;20557;-71
2023/03/12 11:58:42;;;;;;;;;;;;;;;;;;5063977;28;20025;-70
2023/03/12 12:01:17;;;;;;;21.33;9.48;;;;;;;;;;5057357;28;19916;-71
2023/03/12 12:03:42;;;;;;;22.95;10.88;;;;;;;;;;5055442;28;20111;-71
2023/03/12 12:06:07;;;;;;;27.33;11.70;;;;;;;;;;5059165;28;20113;-71
2023/03/12 12:08:46;;;;;;;30.77;13.20;;;;;;;;;;5061117;28;20271;-71
2023/03/12 12:11:17;;;;;;;23.48;11.23;;;;;;;;;;5058131;28;20279;-71
2023/03/12 12:13:49;;;;;;;17.58;8.10;;;;;;;;;;5061753;28;20017;-71
2023/03/12 12:16:14;;;;;;;23.20;11.20;;;;;;;;;;5054354;28;20466;-71
2023/03/12 12:18:39;;;;;;;33.63;7.63;;;;;;;;;;5050261;28;20028;-68
2023/03/12 12:21:19;;;;;;;27.00;10.97;;;;;;;;;;5057905;28;20723;-68
2023/03/12 12:24:03;;;;;;;23.98;10.40;;;;;;;;;;5053414;28;20286;-70
2023/03/12 12:26:37;;;;;;;25.67;10.35;;;;;;;;;;5063002;28;20155;-71
2023/03/12 12:29:10;;;;;;;20.35;10.38;;;;;;;;;;5057423;28;20024;-70
2023/03/12 12:31:49;;;;;;;35.78;12.13;;;;;;;;;;5062052;28;20571;-70
2023/03/12 12:34:14;;;;;;;21.50;10.68;;;;;;;;;;5068482;28;20550;-71
2023/03/12 12:37:41;;;;;;;38.17;14.63;;;;;;;;;;5056287;28;20049;-70
2023/03/12 12:39:38;;;;;;;25.80;12.50;;;;;;;;;;5059874;28;20763;-70
2023/03/12 12:42:05;;;;;;;36.75;13.50;;;;;;;;;;5058471;28;20107;-70
2023/03/12 12:44:32;;;;;;;28.75;12.32;;;;;;;;;;5064073;28;20017;-68
2023/03/12 12:47:04;;;;;;;41.42;13.88;;;;;;;;;;5063622;28;20020;-71
2023/03/12 12:49:29;;;;;;;34.35;14.35;;;;;;;;;;5066903;28;20016;-68
2023/03/12 12:51:57;;;;;;;36.38;14.73;;;;;;;;;;5060816;28;20048;-71
2023/03/12 12:54:34;;;;;;;38.72;13.80;;;;;;;;;;5057836;28;20344;-69
2023/03/12 12:56:59;;;;;;;52.90;15.43;;;;;;;;;;5055046;28;20104;-69
2023/03/12 12:59:27;;;;;;;35.33;14.15;;;;;;;;;;5054598;28;20096;-69
2023/03/12 13:01:53;;;;;;;31.05;14.23;;;;;;;;;;5054266;28;20113;-71
2023/03/12 13:04:26;;;;;;;37.38;14.88;;;;;;;;;;5058940;28;20047;-69
2023/03/12 13:06:55;;;;;;;49.75;16.17;;;;;;;;;;5060322;28;21605;-69
2023/03/12 13:09:22;;;;;;;32.60;13.73;;;;;;;;;;5056715;28;20604;-70
2023/03/12 13:11:48;;;;;;;41.33;13.40;;;;;;;;;;5057727;28;20021;-71
2023/03/12 13:14:17;;;;;;;32.03;8.40;;;;;;;;;;5057369;28;20363;-68
2023/03/12 13:16:43;;;;;;;27.27;7.83;;;;;;;;;;5060370;28;20299;-70
2023/03/12 13:19:17;;;;;;;29.40;5.75;;;;;;;;;;5057488;28;20271;-70
2023/03/12 13:22:01;;;;;;;31.83;6.93;;;;;;;;;;5068564;28;20455;-69
2023/03/12 13:24:55;;;;;;;27.25;5.82;;;;;;;;;;5063873;28;20032;-69
2023/03/12 13:27:28;;;;;;;22.15;4.70;;;;;;;;;;5056122;28;20056;-71
2023/03/12 13:29:56;;;;;;;33.78;6.55;;;;;;;;;;5063573;28;20444;-70
2023/03/12 13:32:34;;;;;;;23.77;7.00;;;;;;;;;;5063266;28;20020;-71
2023/03/12 13:35:05;;;;;;;29.77;4.90;;;;;;;;;;5060533;28;20021;-70
2023/03/12 13:37:45;;;;;;;25.63;4.10;;;;;;;;;;5062619;28;20016;-70
2023/03/12 13:40:25;;;;;;;24.00;5.93;;;;;;;;;;5065907;28;20009;-70
2023/03/12 13:43:00;;;;;;;22.67;5.20;;;;;;;;;;5060805;28;20020;-70
2023/03/12 13:45:27;;;;;;;30.38;3.80;;;;;;;;;;5059283;28;20450;-70
2023/03/12 13:47:54;;;;;;;24.88;4.10;;;;;;;;;;5051271;28;20436;-70
2023/03/12 13:50:19;;;;;;;17.10;4.22;;;;;;;;;;5059374;28;20390;-70
2023/03/12 13:53:11;;;;;;;18.50;4.47;;;;;;;;;;5059747;28;20021;-70
2023/03/12 13:55:38;;;;;;;29.75;5.15;;;;;;;;;;5058127;28;20112;-70
2023/03/12 13:58:03;;;;;;;10.50;2.30;;;;;;;;;;5059161;28;20024;-70
2023/03/12 14:00:35;;;;;;;27.43;4.47;;;;;;;;;;5065869;28;20386;-70
2023/03/12 14:03:09;;;;;;;24.33;5.22;;;;;;;;;;5064398;28;20271;-70
2023/03/12 14:05:43;;;;;;;19.23;2.92;;;;;;;;;;5064770;28;20480;-70
2023/03/12 14:08:17;;;;;;;28.17;4.10;;;;;;;;;;5053880;28;20432;-70
2023/03/12 14:10:48;;;;;;;12.73;2.63;;;;;;;;;;5054612;28;20115;-70
2023/03/12 14:13:16;;;;;;;23.02;4.03;;;;;;;;;;5054070;28;20015;-70
2023/03/12 14:16:00;;;;;;;20.13;4.50;;;;;;;;;;5052844;28;20021;-70
2023/03/12 14:18:26;;;;;;;31.88;4.43;;;;;;;;;;5051038;28;20024;-70
2023/03/12 14:20:57;;;;;;;16.35;2.83;;;;;;;;;;5053793;28;20029;-70
2023/03/12 14:23:24;;;;;;;26.65;3.80;;;;;;;;;;5053584;28;20023;-70
2023/03/12 14:25:52;;;;;;;30.27;4.28;;;;;;;;;;5055708;28;20104;-70
2023/03/12 14:28:21;;;;;;;17.25;3.83;;;;;;;;;;5051647;28;20021;-70
2023/03/12 14:31:05;;;;;;;29.13;4.53;;;;;;;;;;5052859;28;20021;-71
2023/03/12 14:33:33;;;;;;;18.70;3.40;;;;;;;;;;5055367;28;20021;-70
2023/03/12 14:36:09;;;;;;;27.33;4.03;;;;;;;;;;5053940;28;20051;-71
2023/03/12 14:38:44;;;;;;;28.73;4.07;;;;;;;;;;5052949;28;20158;-71
2023/03/12 14:41:14;;;;;;;24.02;3.05;;;;;;;;;;5051178;28;20024;-71